Time;durP1;ratioP1;P1;durP2;ratioP2;P2;SDS_P1;SDS_P2;PMS_P1;PMS_P2;Temp;Humidity;BMP_temperature;BMP_pressure;BME280_temperature;BME280_humidity;BME280_pressure;Samples;Min_cycle;Max_cycle;Signal;HPM_P1;HPM_P2
2021/07/19 04:23:59;;;;;;;9.73;5.60;;;;;;;22.34;67.29;99963.94;5320343;26;20061;-85
2021/07/19 04:26:46;;;;;;;13.98;6.07;;;;;;;22.17;67.67;99962.28;5305205;27;20071;-84
2021/07/19 04:29:33;;;;;;;10.23;5.70;;;;;;;22.18;67.45;99961.34;5305116;27;20060;-86
2021/07/19 04:32:11;;;;;;;8.65;5.22;;;;;;;22.28;67.72;99968.81;5321404;27;20057;-84
2021/07/19 04:34:48;;;;;;;8.77;5.37;;;;;;;22.54;66.46;99968.06;5303423;27;20065;-85
2021/07/19 05:53:47;;;;;;;10.40;5.12;;;;;;;23.05;64.21;100051.50;5317489;26;20079;-83
2021/07/19 05:56:14;;;;;;;8.10;5.07;;;;;;;22.79;64.67;100049.56;5318811;27;20091;-83
2021/07/19 05:58:41;;;;;;;9.07;4.85;;;;;;;23.05;63.85;100056.00;5298932;27;20098;-82
2021/07/19 06:01:08;;;;;;;11.80;5.37;;;;;;;22.96;64.14;100056.56;5297571;27;20079;-82
2021/07/19 06:03:36;;;;;;;9.43;5.32;;;;;;;22.92;64.85;100052.34;5298625;27;20091;-83
2021/07/19 11:20:52;;;;;;;13.50;8.40;;;;;;;25.63;70.35;100057.28;5310880;26;21590;-85
2021/07/19 11:23:47;;;;;;;11.25;8.10;;;;;;;25.42;68.65;100049.81;5285347;27;20403;-88
2021/07/19 11:26:33;;;;;;;12.07;8.27;;;;;;;25.80;67.50;100052.34;5303090;27;20064;-88
2021/07/19 11:29:09;;;;;;;11.05;8.98;;;;;;;25.91;67.72;100042.62;5285255;27;20030;-86
2021/07/19 11:31:42;;;;;;;11.57;9.07;;;;;;;25.94;68.30;100045.97;5303829;27;20053;-84
2021/07/19 11:34:23;;;;;;;16.70;7.97;;;;;;;25.91;68.59;100030.03;5298977;27;20069;-84
2021/07/19 13:23:40;;;;;;;13.05;9.75;;;;;;;26.32;65.50;99985.59;5299821;26;20113;-84
2021/07/19 14:33:19;;;;;;;14.32;11.10;;;;;;;28.24;61.36;99954.59;5299349;26;20109;-83
2021/07/19 14:36:05;;;;;;;13.52;10.73;;;;;;;28.11;61.96;99956.66;5318380;27;20056;-83
2021/07/19 14:38:33;;;;;;;13.40;9.85;;;;;;;27.50;62.62;99969.91;5319246;27;20105;-83
2021/07/19 14:41:00;;;;;;;13.90;9.70;;;;;;;26.32;66.43;99977.53;5318790;27;20078;-83
2021/07/19 14:43:29;;;;;;;14.90;9.25;;;;;;;25.84;65.94;99974.97;5317666;27;20057;-82
2021/07/19 14:46:06;;;;;;;8.88;6.20;;;;;;;24.93;68.54;99996.88;5319458;27;20117;-82
2021/07/19 14:48:33;;;;;;;9.85;7.07;;;;;;;24.54;64.19;100008.62;5299794;27;20572;-85
2021/07/19 14:51:00;;;;;;;11.77;8.10;;;;;;;24.10;65.86;99996.41;5319681;27;20075;-83
2021/07/19 14:53:27;;;;;;;10.20;7.72;;;;;;;24.21;64.91;99992.03;5300246;27;20106;-85
2021/07/19 14:55:54;;;;;;;10.60;7.82;;;;;;;23.76;66.16;99994.19;5320223;27;20096;-85
2021/07/19 14:58:21;;;;;;;11.75;7.55;;;;;;;23.84;65.93;99993.69;5320599;27;20060;-86
2021/07/19 15:00:48;;;;;;;10.43;7.62;;;;;;;23.97;66.21;100002.63;5320600;27;20061;-86
2021/07/19 15:03:15;;;;;;;9.82;7.93;;;;;;;23.62;68.90;100006.75;5320500;27;20073;-84
2021/07/19 15:05:43;;;;;;;11.25;8.25;;;;;;;23.75;67.37;100003.19;5319837;27;20071;-84
2021/07/19 15:08:10;;;;;;;12.02;8.30;;;;;;;23.74;67.62;100006.00;5300332;27;20061;-84
2021/07/19 15:10:37;;;;;;;13.85;7.97;;;;;;;24.10;67.51;100004.47;5319974;27;20112;-85
2021/07/19 15:13:04;;;;;;;11.35;7.62;;;;;;;24.09;66.92;99998.25;5319863;27;20051;-85
2021/07/19 15:15:31;;;;;;;11.00;7.57;;;;;;;24.26;66.12;100002.44;5319449;27;20076;-84
2021/07/19 15:17:58;;;;;;;9.20;7.50;;;;;;;24.59;65.67;100006.44;5319171;27;20116;-85
2021/07/19 15:20:25;;;;;;;10.48;7.72;;;;;;;24.80;66.13;100004.09;5319248;27;20079;-85
2021/07/19 15:22:52;;;;;;;9.73;7.80;;;;;;;24.55;65.45;100002.28;5320070;27;20132;-86
2021/07/19 15:25:19;;;;;;;10.48;7.82;;;;;;;24.85;65.87;100007.28;5320498;27;20106;-85
2021/07/19 15:27:46;;;;;;;10.85;8.52;;;;;;;25.02;64.12;99996.19;5320545;27;20747;-86
2021/07/19 15:30:17;;;;;;;12.52;7.78;;;;;;;24.77;64.88;100002.50;5320849;27;20108;-86
2021/07/19 15:32:46;;;;;;;13.18;8.70;;;;;;;24.79;64.44;100002.38;5320952;27;20450;-86
2021/07/19 15:35:14;;;;;;;8.85;7.95;;;;;;;25.13;65.21;99996.31;5320752;27;20065;-85
2021/07/19 15:37:41;;;;;;;10.27;7.68;;;;;;;25.11;64.77;99998.22;5320145;27;20117;-86
2021/07/19 15:40:13;;;;;;;11.45;7.53;;;;;;;25.45;63.41;100001.16;5300575;27;20113;-86
2021/07/19 15:42:40;;;;;;;10.70;7.60;;;;;;;25.49;62.99;99999.97;5320492;27;20079;-86
2021/07/19 15:45:09;;;;;;;12.27;7.43;;;;;;;25.70;61.44;99994.78;5320251;27;20070;-85
2021/07/19 15:47:38;;;;;;;12.57;8.10;;;;;;;25.86;61.78;99986.47;5319653;27;20081;-85
2021/07/19 15:50:07;;;;;;;12.45;7.62;;;;;;;26.34;59.99;99989.03;5320047;27;20117;-85
2021/07/19 15:52:49;;;;;;;11.63;8.02;;;;;;;26.55;59.62;99994.63;5319101;27;20413;-86
2021/07/19 15:55:16;;;;;;;14.15;8.30;;;;;;;26.95;57.58;99991.44;5320677;27;20111;-86
2021/07/19 15:57:43;;;;;;;11.43;7.80;;;;;;;27.18;57.88;99992.31;5300303;27;20068;-87
2021/07/19 16:00:10;;;;;;;10.45;8.30;;;;;;;27.25;56.47;99984.56;5319583;27;20094;-86
2021/07/19 16:02:37;;;;;;;11.45;7.45;;;;;;;27.49;57.07;99981.69;5320108;27;20067;-85
2021/07/19 16:05:05;;;;;;;9.48;7.68;;;;;;;27.53;57.17;99984.03;5319356;27;20157;-86
2021/07/19 16:07:35;;;;;;;11.82;8.50;;;;;;;27.73;56.14;99985.03;5319989;27;20081;-86
2021/07/19 16:10:10;;;;;;;9.18;7.93;;;;;;;28.13;55.23;99981.69;5320113;27;20069;-84
2021/07/19 16:12:37;;;;;;;8.65;7.20;;;;;;;28.32;54.64;99978.25;5320865;27;20068;-84
2021/07/19 16:15:10;;;;;;;9.68;7.20;;;;;;;28.42;54.13;99976.50;5320622;27;20068;-84
2021/07/19 16:17:37;;;;;;;9.20;7.22;;;;;;;28.75;54.35;99975.38;5301216;27;20028;-84
2021/07/19 16:20:05;;;;;;;11.70;8.18;;;;;;;28.67;54.23;99969.78;5320971;27;20407;-84
2021/07/19 16:52:18;;;;;;;11.30;8.68;;;;;;;29.01;52.07;99963.22;5284097;26;20073;-83
2021/07/19 16:54:46;;;;;;;15.60;9.43;;;;;;;29.22;51.71;99966.72;5299208;27;20061;-84
2021/07/19 16:57:12;;;;;;;12.68;8.85;;;;;;;28.95;52.13;99968.19;5279624;27;20057;-86
2021/07/19 16:59:39;;;;;;;12.82;8.10;;;;;;;28.97;51.91;99971.63;5298712;27;20076;-86
2021/07/19 17:02:07;;;;;;;11.50;9.02;;;;;;;29.04;51.76;99976.50;5299358;27;20056;-86
2021/07/19 17:04:37;;;;;;;9.40;8.38;;;;;;;29.00;52.05;99973.16;5299048;27;20533;-86
2021/07/19 17:07:04;;;;;;;13.32;9.23;;;;;;;29.18;51.43;99973.44;5279163;27;20208;-87
2021/07/19 17:09:31;;;;;;;12.48;8.80;;;;;;;28.96;52.12;99979.88;5297472;27;20057;-86
2021/07/19 17:11:58;;;;;;;12.32;8.52;;;;;;;28.97;52.18;99985.16;5278974;27;20726;-86
2021/07/19 17:14:25;;;;;;;13.23;8.93;;;;;;;29.02;52.45;99979.34;5298585;27;20112;-86
2021/07/19 17:16:53;;;;;;;13.00;8.95;;;;;;;28.74;53.80;99984.47;5297079;27;20085;-87
2021/07/19 17:19:19;;;;;;;11.05;9.25;;;;;;;28.87;53.33;99976.13;5298725;27;20121;-85
2021/07/19 17:21:48;;;;;;;10.95;8.63;;;;;;;28.83;53.73;99982.81;5298374;27;20071;-85
2021/07/19 17:24:16;;;;;;;12.23;9.32;;;;;;;28.81;53.92;99975.81;5296871;27;20358;-86
2021/07/19 17:26:44;;;;;;;12.65;9.88;;;;;;;28.85;53.74;99977.25;5296818;27;20066;-86
2021/07/19 17:29:11;;;;;;;12.40;8.80;;;;;;;28.67;53.82;99980.59;5298892;27;20148;-86
2021/07/19 17:31:39;;;;;;;11.95;9.57;;;;;;;28.66;53.86;99980.75;5298592;27;20057;-85
2021/07/19 17:34:06;;;;;;;9.75;8.73;;;;;;;28.63;53.37;99979.16;5279399;27;20065;-86
2021/07/19 17:36:33;;;;;;;16.70;8.88;;;;;;;28.71;53.02;99987.47;5297185;27;20068;-86
2021/07/19 17:39:01;;;;;;;25.37;10.32;;;;;;;28.50;54.00;99995.59;5298974;27;20116;-85
2021/07/19 17:41:28;;;;;;;11.40;8.88;;;;;;;28.53;53.76;99983.66;5298461;27;20049;-85
2021/07/19 17:43:55;;;;;;;10.07;7.90;;;;;;;28.51;53.62;99985.66;5298305;27;20071;-85
2021/07/19 17:46:22;;;;;;;13.45;9.13;;;;;;;28.42;53.68;99984.59;5278898;27;20753;-87
2021/07/19 17:48:49;;;;;;;10.80;9.70;;;;;;;28.40;54.23;99988.41;5296871;27;20116;-86
2021/07/19 17:51:15;;;;;;;29.00;23.12;;;;;;;28.27;55.00;99983.22;5298319;27;20435;-86
2021/07/19 17:53:42;;;;;;;16.73;11.75;;;;;;;28.20;55.14;99980.16;5298207;27;20060;-86
2021/07/19 17:56:09;;;;;;;12.80;9.93;;;;;;;28.22;54.67;99980.88;5299524;27;20073;-86
2021/07/19 17:58:36;;;;;;;10.88;9.48;;;;;;;28.20;54.55;99988.25;5300726;27;20135;-85
2021/07/19 18:01:03;;;;;;;15.15;10.23;;;;;;;28.24;54.51;99988.88;5298134;27;20084;-86
2021/07/19 18:03:30;;;;;;;13.18;10.02;;;;;;;28.14;54.87;99994.19;5301774;27;20061;-86
2021/07/19 18:05:57;;;;;;;12.63;9.25;;;;;;;28.05;55.25;99989.56;5299680;27;20060;-86
2021/07/19 18:08:24;;;;;;;12.30;10.50;;;;;;;27.98;55.45;99988.41;5282024;27;20111;-86
2021/07/19 18:10:51;;;;;;;10.95;9.80;;;;;;;28.12;55.09;99982.69;5300360;27;20095;-85
2021/07/19 18:13:18;;;;;;;13.57;9.77;;;;;;;28.10;55.95;99989.19;5302614;27;20076;-86
2021/07/19 18:15:46;;;;;;;13.20;10.73;;;;;;;27.99;56.44;99992.81;5304083;27;20114;-86
2021/07/19 18:18:13;;;;;;;11.73;9.82;;;;;;;27.85;56.41;99992.16;5302831;27;20667;-86
2021/07/19 18:20:40;;;;;;;11.02;9.25;;;;;;;27.81;56.12;99990.69;5302460;27;20057;-87
2021/07/19 18:23:24;;;;;;;13.20;9.18;;;;;;;27.77;55.94;99993.75;5301674;27;20029;-86
2021/07/19 18:26:04;;;;;;;12.15;9.93;;;;;;;27.72;55.76;99987.88;5302034;27;20526;-86
2021/07/19 18:31:17;;;;;;;10.93;9.75;;;;;;;27.51;56.81;99985.97;5303546;27;20022;-86
2021/07/19 18:33:44;;;;;;;15.30;11.40;;;;;;;27.67;57.13;99990.94;5303106;27;20611;-86
2021/07/19 18:36:11;;;;;;;14.82;10.95;;;;;;;27.53;57.66;99988.53;5302831;27;20049;-85
2021/07/19 18:38:40;;;;;;;14.02;10.32;;;;;;;27.24;58.67;99999.91;5302209;27;20030;-86
2021/07/19 18:41:11;;;;;;;12.90;9.48;;;;;;;27.11;59.17;99991.06;5301371;27;20101;-86
2021/07/19 18:43:38;;;;;;;13.80;10.35;;;;;;;26.99;59.76;100005.53;5301955;27;20061;-86
2021/07/19 18:46:06;;;;;;;10.52;9.43;;;;;;;26.85;59.78;100006.63;5302556;27;20041;-86
2021/07/19 18:48:39;;;;;;;17.67;11.55;;;;;;;26.70;59.27;100006.00;5303213;27;20059;-85
2021/07/19 18:51:09;;;;;;;15.25;10.70;;;;;;;26.57;59.68;100000.75;5302597;27;20082;-87
2021/07/19 18:53:39;;;;;;;15.35;9.48;;;;;;;26.45;60.13;100009.78;5302268;27;20044;-86
2021/07/19 18:56:06;;;;;;;13.13;10.02;;;;;;;26.32;59.85;100017.06;5300946;27;20548;-86
2021/07/19 18:58:33;;;;;;;16.12;10.23;;;;;;;26.34;59.46;100015.97;5302706;27;20378;-86
2021/07/19 19:01:02;;;;;;;;;;;;;;;26.01;60.27;100012.22;5303644;27;20424;-86
2021/07/19 19:03:30;;;;;;;11.70;9.07;;;;;;;26.18;60.08;100019.00;5283540;27;20448;-86
2021/07/19 19:05:57;;;;;;;16.00;9.98;;;;;;;26.15;59.67;100026.44;5301935;27;20045;-86
2021/07/19 19:08:25;;;;;;;11.57;9.90;;;;;;;26.02;59.83;100027.37;5282705;27;20068;-86
2021/07/19 19:10:58;;;;;;;12.02;9.45;;;;;;;25.97;60.11;100026.91;5302497;27;20121;-86
2021/07/19 19:13:25;;;;;;;12.23;9.90;;;;;;;25.69;60.73;100029.91;5303068;27;20098;-85
2021/07/19 19:15:52;;;;;;;14.77;11.65;;;;;;;25.79;60.28;100031.78;5302381;27;20053;-86
2021/07/19 19:18:19;;;;;;;15.18;11.23;;;;;;;25.87;60.54;100033.06;5302546;27;20077;-86
2021/07/19 19:20:46;;;;;;;12.50;10.43;;;;;;;25.77;60.60;100032.88;5299826;27;20081;-86
2021/07/19 19:23:13;;;;;;;14.07;11.10;;;;;;;25.71;60.37;100039.59;5280873;27;20068;-86
2021/07/19 19:25:40;;;;;;;19.48;12.00;;;;;;;25.82;59.89;100039.69;5280184;27;20452;-86
2021/07/19 19:28:08;;;;;;;14.20;11.80;;;;;;;24.93;63.80;100050.63;5297945;27;20398;-86
2021/07/19 19:30:36;;;;;;;14.70;11.60;;;;;;;25.45;61.87;100049.56;5279621;27;20068;-86
2021/07/19 19:33:05;;;;;;;13.48;11.48;;;;;;;25.43;61.98;100046.12;5299460;27;20112;-86
2021/07/19 19:35:33;;;;;;;13.43;9.33;;;;;;;25.47;61.56;100046.75;5280277;27;20053;-86
2021/07/19 19:38:00;;;;;;;14.32;10.52;;;;;;;25.35;61.21;100045.81;5297652;27;20694;-86
2021/07/19 19:40:28;;;;;;;11.10;8.52;;;;;;;25.34;61.07;100049.50;5299553;27;20111;-85
2021/07/19 19:42:55;;;;;;;12.88;10.35;;;;;;;25.22;61.23;100051.25;5299164;27;20366;-86
2021/07/19 19:45:22;;;;;;;16.48;13.32;;;;;;;25.26;61.00;100049.19;5299536;27;20422;-86
2021/07/19 19:47:50;;;;;;;12.30;11.07;;;;;;;25.18;61.80;100040.81;5279022;27;20035;-86
2021/07/19 19:50:25;;;;;;;15.83;10.67;;;;;;;24.96;62.14;100050.37;5299691;27;20053;-86
2021/07/19 19:52:59;;;;;;;14.63;9.70;;;;;;;25.02;61.41;100049.94;5300178;27;20056;-86
2021/07/19 19:55:31;;;;;;;11.82;10.63;;;;;;;25.00;61.17;100049.22;5280160;27;20077;-85
2021/07/19 19:57:58;;;;;;;12.15;8.60;;;;;;;24.98;61.17;100050.28;5279794;27;20064;-85
2021/07/19 20:00:26;;;;;;;14.10;9.13;;;;;;;24.94;61.07;100060.38;5279202;27;20472;-86
2021/07/19 20:02:53;;;;;;;13.25;10.05;;;;;;;24.90;60.88;100064.25;5299370;27;20158;-86
2021/07/19 20:05:20;;;;;;;17.15;10.68;;;;;;;24.87;60.66;100064.47;5298942;27;20077;-85
2021/07/19 20:07:48;;;;;;;11.40;7.62;;;;;;;24.92;60.96;100071.25;5278715;27;20396;-85
2021/07/19 20:10:16;;;;;;;12.77;8.63;;;;;;;24.82;61.05;100078.22;5297525;27;20080;-85
2021/07/19 20:12:43;;;;;;;13.35;9.68;;;;;;;24.67;60.91;100079.31;5298301;27;20177;-86
2021/07/19 20:15:12;;;;;;;12.10;9.02;;;;;;;24.70;60.58;100079.94;5278656;27;20529;-86
2021/07/19 20:17:40;;;;;;;17.43;11.00;;;;;;;24.74;61.24;100074.34;5297795;27;20652;-86
2021/07/19 20:20:08;;;;;;;15.82;10.55;;;;;;;24.40;62.60;100077.53;5297736;27;20180;-86
2021/07/19 20:22:34;;;;;;;14.32;9.55;;;;;;;24.21;63.05;100085.13;5297747;27;20113;-85
2021/07/19 20:25:02;;;;;;;12.98;8.65;;;;;;;24.17;62.61;100079.09;5298190;27;20070;-86
2021/07/19 20:27:29;;;;;;;11.27;8.38;;;;;;;24.16;62.18;100082.75;5298117;27;20121;-85
2021/07/19 20:29:56;;;;;;;15.75;9.13;;;;;;;24.08;62.11;100084.22;5296642;27;20065;-86
2021/07/19 20:32:23;;;;;;;16.00;9.85;;;;;;;24.13;61.88;100090.16;5298586;27;20056;-85
2021/07/19 20:34:51;;;;;;;14.87;9.18;;;;;;;23.91;62.21;100085.34;5279333;27;20064;-85
2021/07/19 20:37:18;;;;;;;14.05;9.55;;;;;;;23.76;62.96;100098.78;5299024;27;20084;-86
2021/07/19 20:39:45;;;;;;;14.25;9.15;;;;;;;23.79;62.74;100103.09;5299297;27;20085;-85
2021/07/19 20:42:12;;;;;;;17.55;9.30;;;;;;;23.81;61.66;100098.50;5298023;27;20032;-85
2021/07/19 20:44:40;;;;;;;14.75;9.65;;;;;;;23.88;59.78;100101.63;5300029;27;20506;-84
2021/07/19 20:47:08;;;;;;;15.88;10.07;;;;;;;23.69;58.45;100092.09;5299682;27;20053;-85
2021/07/19 20:49:37;;;;;;;;;;;;;;;23.57;57.50;100096.41;5298337;27;20175;-85
2021/07/19 20:52:05;;;;;;;17.52;9.35;;;;;;;23.57;57.79;100098.25;5280226;27;19982;-84
2021/07/19 20:54:33;;;;;;;16.08;9.93;;;;;;;23.46;57.19;100100.75;5299384;27;20057;-84
2021/07/19 20:57:00;;;;;;;15.23;9.80;;;;;;;23.53;56.82;100102.06;5297842;27;20079;-84
2021/07/19 20:59:27;;;;;;;14.13;9.00;;;;;;;23.31;57.46;100102.59;5299653;27;20124;-84
2021/07/19 21:01:54;;;;;;;16.00;9.68;;;;;;;23.12;57.24;100103.75;5299492;27;20083;-84
2021/07/19 21:04:21;;;;;;;15.20;9.32;;;;;;;22.95;57.49;100103.09;5299950;27;20517;-84
2021/07/19 21:06:48;;;;;;;16.23;9.27;;;;;;;22.96;57.68;100100.28;5299738;27;20061;-85
2021/07/19 21:09:16;;;;;;;15.82;9.82;;;;;;;22.92;57.79;100100.56;5299227;27;20053;-85
2021/07/19 21:11:44;;;;;;;14.65;9.55;;;;;;;22.93;57.86;100099.59;5299372;27;20029;-87
2021/07/19 21:14:10;;;;;;;20.15;10.60;;;;;;;22.92;57.66;100103.25;5299019;27;20102;-85
2021/07/19 21:16:37;;;;;;;16.52;10.23;;;;;;;22.83;57.94;100096.62;5299082;27;20056;-85
2021/07/19 21:19:05;;;;;;;13.32;9.18;;;;;;;22.82;57.97;100098.44;5297231;27;20432;-85
2021/07/19 21:21:32;;;;;;;14.52;9.55;;;;;;;22.76;58.76;100105.97;5299222;27;20070;-85
2021/07/19 21:23:59;;;;;;;15.95;8.88;;;;;;;22.72;58.75;100105.31;5298609;27;20116;-85
2021/07/19 21:26:25;;;;;;;13.43;9.20;;;;;;;22.92;58.11;100108.59;5299120;27;20056;-86
2021/07/19 21:28:52;;;;;;;11.75;8.25;;;;;;;22.57;59.07;100107.09;5297556;27;20057;-85
2021/07/19 21:31:20;;;;;;;14.45;8.27;;;;;;;22.69;58.88;100118.91;5279846;27;20514;-86
2021/07/19 21:33:47;;;;;;;14.45;8.80;;;;;;;22.84;58.30;100119.78;5279501;27;20434;-85
2021/07/19 21:36:14;;;;;;;14.15;9.00;;;;;;;22.40;59.68;100118.81;5297456;27;20105;-85
2021/07/19 21:38:41;;;;;;;12.57;8.32;;;;;;;22.35;59.76;100120.91;5298949;27;20402;-85
2021/07/19 21:41:08;;;;;;;13.38;8.38;;;;;;;22.32;60.69;100129.09;5299440;27;20057;-85
2021/07/19 21:43:35;;;;;;;13.65;8.52;;;;;;;22.35;60.45;100122.72;5299653;27;20462;-85
2021/07/19 21:46:02;;;;;;;11.40;7.60;;;;;;;22.34;60.45;100129.03;5299396;27;20073;-86
2021/07/19 21:48:29;;;;;;;12.88;7.62;;;;;;;21.97;61.30;100128.44;5299170;27;20057;-85
2021/07/19 21:50:56;;;;;;;14.25;8.82;;;;;;;22.20;60.79;100130.69;5299305;27;20113;-85
2021/07/19 21:53:23;;;;;;;13.00;7.78;;;;;;;22.39;59.92;100130.47;5299016;27;20075;-86
2021/07/19 21:55:50;;;;;;;14.20;7.47;;;;;;;22.37;60.32;100137.72;5297751;27;20069;-85
2021/07/19 21:58:17;;;;;;;14.35;8.27;;;;;;;22.35;60.42;100133.41;5296953;27;20100;-85
2021/07/19 22:00:44;;;;;;;9.10;6.78;;;;;;;22.34;60.66;100137.06;5278822;27;20075;-85
2021/07/19 22:03:11;;;;;;;12.65;8.13;;;;;;;22.43;60.25;100144.53;5278503;27;20067;-85
2021/07/19 22:05:39;;;;;;;14.02;6.80;;;;;;;22.01;61.95;100143.38;5298471;27;20433;-85
2021/07/19 22:08:08;;;;;;;11.45;7.43;;;;;;;22.23;60.52;100143.88;5278508;27;20065;-85
2021/07/19 22:10:37;;;;;;;13.23;7.47;;;;;;;22.18;61.00;100137.09;5298110;27;20065;-85
2021/07/19 22:13:05;;;;;;;12.93;7.37;;;;;;;22.40;60.18;100136.69;5297817;27;20063;-86
2021/07/19 22:15:34;;;;;;;11.52;7.43;;;;;;;22.54;59.64;100143.91;5297882;27;20068;-86
2021/07/19 22:18:02;;;;;;;11.20;7.47;;;;;;;22.31;60.28;100138.09;5297720;27;20435;-85
2021/07/19 22:20:29;;;;;;;10.80;6.90;;;;;;;22.42;60.12;100135.66;5297953;27;20114;-85
2021/07/19 22:22:58;;;;;;;11.75;6.60;;;;;;;22.47;59.70;100137.19;5277910;27;20116;-84
2021/07/19 22:25:25;;;;;;;12.68;7.05;;;;;;;22.34;60.62;100145.94;5297424;27;20387;-85
2021/07/19 22:27:53;;;;;;;10.40;7.07;;;;;;;22.36;59.77;100146.72;5297633;27;20061;-85
2021/07/19 22:30:22;;;;;;;11.43;6.93;;;;;;;22.26;60.07;100142.00;5278076;27;20085;-84
2021/07/19 22:32:50;;;;;;;11.95;7.25;;;;;;;22.48;59.22;100138.94;5278102;27;20128;-85
2021/07/19 22:35:21;;;;;;;14.43;7.32;;;;;;;22.39;60.57;100143.00;5297210;27;20067;-85
2021/07/19 22:37:48;;;;;;;9.43;6.43;;;;;;;22.50;59.41;100140.56;5297653;27;20071;-85
2021/07/19 22:40:15;;;;;;;11.50;6.80;;;;;;;22.60;58.76;100138.19;5297336;27;20071;-86
2021/07/19 22:42:42;;;;;;;12.23;7.03;;;;;;;22.43;59.56;100148.06;5297507;27;20067;-85
2021/07/19 22:45:12;;;;;;;9.13;6.15;;;;;;;22.52;58.57;100138.63;5297651;27;20107;-85
2021/07/19 22:47:39;;;;;;;11.32;6.37;;;;;;;22.50;58.78;100145.94;5297361;27;20069;-85
2021/07/19 22:50:09;;;;;;;14.32;6.95;;;;;;;22.61;58.22;100142.59;5277811;27;20445;-85
2021/07/19 22:52:36;;;;;;;12.25;7.25;;;;;;;22.59;58.52;100148.06;5277780;27;20087;-84
2021/07/19 22:55:05;;;;;;;12.50;7.05;;;;;;;22.58;59.72;100150.81;5297155;27;20324;-85
2021/07/19 22:57:32;;;;;;;9.68;6.62;;;;;;;22.39;60.18;100145.69;5277814;27;20121;-85
2021/07/19 22:59:58;;;;;;;9.63;6.93;;;;;;;22.14;60.19;100141.72;5277784;27;20371;-85
